Time;durP1;ratioP1;P1;durP2;ratioP2;P2;SDS_P1;SDS_P2;PMS_P1;PMS_P2;Temp;Humidity;BMP_temperature;BMP_pressure;BME280_temperature;BME280_humidity;BME280_pressure;Samples;Min_cycle;Max_cycle;Signal;HPM_P1;HPM_P2
2023/06/24 05:20:13;;;;;;;3.97;3.78;;;25.50;99.90;;;;;;5036448;23;20224;-69
2023/06/24 05:22:39;;;;;;;4.63;4.32;;;25.40;99.90;;;;;;4975002;28;20215;-69
2023/06/24 05:25:07;;;;;;;4.57;4.28;;;25.40;99.90;;;;;;4975137;28;20199;-70
2023/06/24 05:27:33;;;;;;;4.72;4.32;;;25.60;99.90;;;;;;4975198;28;20203;-70
2023/06/24 05:30:00;;;;;;;4.38;4.05;;;25.60;99.90;;;;;;4974760;28;20709;-70
2023/06/24 05:32:27;;;;;;;4.35;3.95;;;25.70;99.90;;;;;;4975406;28;20693;-70
2023/06/24 05:34:54;;;;;;;3.92;3.72;;;25.90;99.90;;;;;;4975068;28;20214;-70
2023/06/24 05:37:22;;;;;;;4.20;3.90;;;26.00;99.90;;;;;;4975185;28;20194;-70
2023/06/24 05:39:48;;;;;;;4.03;3.83;;;26.30;99.90;;;;;;4974805;28;20226;-70
2023/06/24 05:42:15;;;;;;;4.82;4.30;;;27.00;98.50;;;;;;4974728;28;20713;-70
2023/06/24 05:44:42;;;;;;;4.10;3.90;;;27.50;93.70;;;;;;4974948;28;20253;-70
2023/06/24 05:47:08;;;;;;;4.07;3.88;;;27.60;79.90;;;;;;4974822;28;20229;-70
2023/06/24 05:49:35;;;;;;;4.15;3.85;;;27.90;85.30;;;;;;4974804;28;20222;-70
2023/06/24 05:52:02;;;;;;;3.78;3.58;;;28.30;80.80;;;;;;4975027;28;20258;-70
2023/06/24 05:54:30;;;;;;;3.78;3.47;;;28.50;84.40;;;;;;4974966;28;20297;-70
2023/06/24 05:56:56;;;;;;;4.25;3.95;;;28.80;76.20;;;;;;4975504;28;20198;-70
2023/06/24 05:59:23;;;;;;;4.30;4.00;;;29.40;69.10;;;;;;4974728;28;20227;-70
2023/06/24 06:01:50;;;;;;;3.67;3.47;;;29.80;64.70;;;;;;4974400;28;20250;-70
2023/06/24 06:04:16;;;;;;;3.72;3.53;;;30.30;60.30;;;;;;4975419;28;20230;-70
2023/06/24 06:06:43;;;;;;;3.60;3.40;;;30.10;61.20;;;;;;4974647;28;20222;-70
2023/06/24 06:09:10;;;;;;;3.97;3.67;;;30.30;61.50;;;;;;4974635;28;20252;-70
2023/06/24 06:11:38;;;;;;;3.20;3.10;;;30.70;58.40;;;;;;4974731;28;20244;-70
2023/06/24 06:14:04;;;;;;;3.40;3.20;;;31.00;55.80;;;;;;4974642;28;20198;-70
2023/06/24 06:16:32;;;;;;;3.55;3.33;;;31.40;52.40;;;;;;4977892;28;20203;-70
2023/06/24 06:18:59;;;;;;;2.88;2.78;;;31.50;51.30;;;;;;4974545;28;20219;-71
2023/06/24 06:21:26;;;;;;;3.00;2.88;;;32.10;49.50;;;;;;4974353;28;20219;-71
2023/06/24 06:23:52;;;;;;;2.83;2.60;;;32.60;48.00;;;;;;4974281;28;20257;-71
2023/06/24 06:26:19;;;;;;;2.90;2.75;;;32.80;47.30;;;;;;4974490;28;20226;-71
2023/06/24 06:28:48;;;;;;;2.88;2.65;;;32.90;47.30;;;;;;4974453;28;20233;-68
2023/06/24 06:31:14;;;;;;;2.90;2.80;;;33.30;46.20;;;;;;4974532;28;20234;-70
2023/06/24 06:33:41;;;;;;;3.00;2.80;;;33.60;45.40;;;;;;4974434;28;20207;-70
2023/06/24 06:36:08;;;;;;;2.60;2.50;;;33.90;45.20;;;;;;4974538;28;20283;-70
2023/06/24 06:38:35;;;;;;;2.35;2.25;;;34.10;42.00;;;;;;4974390;28;20583;-70
2023/06/24 06:41:01;;;;;;;2.63;2.42;;;34.50;44.50;;;;;;4974335;28;20213;-70
2023/06/24 06:43:28;;;;;;;2.40;2.30;;;35.00;42.40;;;;;;4974148;28;20199;-70
2023/06/24 06:45:56;;;;;;;2.05;1.95;;;35.30;41.80;;;;;;4974715;28;20215;-70
2023/06/24 06:48:23;;;;;;;2.15;2.00;;;35.50;39.90;;;;;;4974644;28;20251;-70
2023/06/24 06:50:52;;;;;;;2.15;2.10;;;35.50;40.90;;;;;;4977993;28;20207;-70
2023/06/24 06:53:19;;;;;;;2.20;2.10;;;35.90;40.20;;;;;;4989519;28;20203;-70
2023/06/24 06:55:45;;;;;;;2.50;2.40;;;36.40;38.80;;;;;;4985959;28;20211;-70
2023/06/24 06:58:12;;;;;;;2.45;2.35;;;35.80;39.10;;;;;;4984367;28;20277;-70
2023/06/24 07:00:39;;;;;;;2.40;2.30;;;35.70;38.90;;;;;;4974244;28;20206;-71
2023/06/24 07:03:07;;;;;;;2.45;2.35;;;35.60;38.50;;;;;;4974341;28;20214;-71
2023/06/24 07:05:34;;;;;;;3.10;2.15;;;35.50;40.70;;;;;;4974202;28;20203;-71
2023/06/24 07:08:00;;;;;;;2.30;2.20;;;36.00;39.50;;;;;;4974381;28;20203;-71
2023/06/24 07:10:27;;;;;;;2.38;2.28;;;36.20;38.40;;;;;;4974283;28;20206;-71
2023/06/24 07:12:57;;;;;;;2.53;2.42;;;36.60;38.20;;;;;;4975607;28;20561;-71
2023/06/24 07:15:25;;;;;;;1.95;1.92;;;37.00;37.80;;;;;;4977753;28;20191;-71
2023/06/24 07:17:52;;;;;;;1.85;1.85;;;37.00;35.10;;;;;;4977587;28;20203;-71
2023/06/24 07:20:20;;;;;;;1.83;1.83;;;37.00;35.80;;;;;;4977460;28;20211;-71
2023/06/24 07:22:47;;;;;;;2.05;1.95;;;37.20;34.60;;;;;;4977117;28;20223;-71
2023/06/24 07:25:14;;;;;;;1.90;1.90;;;36.80;34.50;;;;;;4977058;28;20210;-71
2023/06/24 07:27:40;;;;;;;2.15;2.05;;;37.00;33.90;;;;;;4976971;28;20277;-71
2023/06/24 07:30:08;;;;;;;1.60;1.60;;;36.80;33.90;;;;;;4977156;28;20293;-71
2023/06/24 07:32:35;;;;;;;1.80;1.77;;;36.80;33.20;;;;;;4976936;28;20721;-71
2023/06/24 07:35:02;;;;;;;2.00;1.90;;;36.40;33.60;;;;;;4977175;28;20210;-71
2023/06/24 07:37:30;;;;;;;1.60;1.60;;;36.00;34.20;;;;;;4977204;28;20195;-71
2023/06/24 07:39:56;;;;;;;2.03;1.92;;;35.70;34.70;;;;;;4976978;28;20225;-71
2023/06/24 07:42:23;;;;;;;1.77;1.67;;;35.80;34.70;;;;;;4977051;28;20203;-71
2023/06/24 07:44:50;;;;;;;1.63;1.52;;;35.30;34.90;;;;;;4977011;28;20203;-70
2023/06/24 07:47:18;;;;;;;1.92;1.90;;;35.10;35.80;;;;;;4976897;28;20218;-70
2023/06/24 07:49:45;;;;;;;2.10;2.00;;;35.40;37.40;;;;;;4976842;28;20620;-69
2023/06/24 07:52:11;;;;;;;1.85;1.85;;;35.30;36.10;;;;;;4976969;28;20207;-70
2023/06/24 07:54:40;;;;;;;2.05;2.05;;;35.40;35.70;;;;;;4976819;28;20203;-70
2023/06/24 07:57:06;;;;;;;1.65;1.55;;;35.00;35.80;;;;;;4976760;28;20203;-67
2023/06/24 07:59:33;;;;;;;2.10;2.00;;;35.00;36.20;;;;;;4976603;28;20269;-67
2023/06/24 08:02:00;;;;;;;1.92;1.90;;;35.60;35.70;;;;;;4976418;28;20624;-67
2023/06/24 08:04:26;;;;;;;1.98;1.88;;;35.50;35.20;;;;;;4976596;28;20217;-68
2023/06/24 08:06:53;;;;;;;2.08;2.00;;;35.50;35.50;;;;;;4976532;28;20222;-67
2023/06/24 08:09:20;;;;;;;1.83;1.73;;;35.10;35.30;;;;;;4980919;28;20226;-69
2023/06/24 08:11:49;;;;;;;1.98;1.90;;;34.50;36.20;;;;;;4980465;28;20237;-68
2023/06/24 08:14:16;;;;;;;1.40;1.40;;;33.20;36.20;;;;;;4981073;28;20203;-70
2023/06/24 08:16:44;;;;;;;2.20;2.10;;;31.90;38.60;;;;;;4979708;28;20285;-69
2023/06/24 08:19:10;;;;;;;2.30;2.20;;;30.70;41.90;;;;;;4978479;28;20219;-69
2023/06/24 08:21:37;;;;;;;1.98;1.98;;;29.40;45.20;;;;;;4976340;28;20689;-67
2023/06/24 08:24:04;;;;;;;2.65;2.50;;;28.60;51.10;;;;;;4976039;28;20211;-67
2023/06/24 08:26:31;;;;;;;2.20;2.10;;;28.20;56.50;;;;;;4975943;28;20226;-67
2023/06/24 08:28:59;;;;;;;2.20;2.10;;;28.00;57.90;;;;;;4975894;28;20825;-67
2023/06/24 08:31:26;;;;;;;2.50;2.38;;;27.60;54.20;;;;;;4976187;28;20293;-67
2023/06/24 08:33:54;;;;;;;3.08;2.88;;;26.80;58.40;;;;;;4976140;28;20230;-67
2023/06/24 08:36:23;;;;;;;3.40;3.20;;;25.80;65.40;;;;;;4975946;28;20203;-67
2023/06/24 08:38:50;;;;;;;2.67;2.58;;;25.10;82.70;;;;;;4975562;28;20261;-67
2023/06/24 08:41:16;;;;;;;3.15;2.95;;;24.50;93.90;;;;;;4975896;28;20207;-68
2023/06/24 08:43:43;;;;;;;2.85;2.75;;;23.90;99.90;;;;;;4975850;28;20207;-67
2023/06/24 08:46:12;;;;;;;2.97;2.83;;;23.30;99.90;;;;;;4975738;28;20213;-66
2023/06/24 08:48:40;;;;;;;3.08;2.78;;;23.00;99.90;;;;;;4975551;28;20597;-68
2023/06/24 08:51:09;;;;;;;3.38;3.13;;;23.00;99.90;;;;;;4975737;28;20607;-67
2023/06/24 08:53:38;;;;;;;3.50;3.30;;;22.90;99.90;;;;;;4975745;28;20210;-71
2023/06/24 08:56:05;;;;;;;3.10;2.88;;;22.70;99.90;;;;;;4975890;28;20202;-70
2023/06/24 08:58:32;;;;;;;3.30;3.10;;;22.80;99.90;;;;;;4975795;28;20214;-72
2023/06/24 09:00:59;;;;;;;3.15;2.95;;;22.60;99.90;;;;;;4975861;28;20203;-68
2023/06/24 09:03:27;;;;;;;3.90;3.60;;;22.70;99.90;;;;;;4976027;28;20191;-68
2023/06/24 09:05:54;;;;;;;3.30;3.10;;;22.70;99.90;;;;;;4975581;28;20206;-72
2023/06/24 09:08:22;;;;;;;3.28;3.10;;;22.90;99.90;;;;;;4975672;28;20226;-71
2023/06/24 09:10:55;;;;;;;2.70;2.60;;;23.00;99.90;;;;;;4975549;28;20217;-72
2023/06/24 09:13:22;;;;;;;3.05;2.92;;;23.10;99.90;;;;;;4975510;28;20215;-71
2023/06/24 09:15:49;;;;;;;3.80;3.50;;;23.10;99.90;;;;;;4975743;28;20202;-71
2023/06/24 09:18:17;;;;;;;3.17;2.88;;;23.40;99.90;;;;;;4975496;28;20219;-68
2023/06/24 09:20:49;;;;;;;3.33;3.00;;;23.60;99.90;;;;;;4974959;28;20666;-69
2023/06/24 09:23:17;;;;;;;3.20;3.00;;;23.50;99.90;;;;;;4975829;28;20213;-68
2023/06/24 09:25:44;;;;;;;3.05;2.88;;;23.70;99.90;;;;;;4975548;28;20210;-69
2023/06/24 09:28:14;;;;;;;2.90;2.70;;;23.90;99.90;;;;;;4974768;28;20562;-68
2023/06/24 09:30:41;;;;;;;3.00;2.90;;;24.00;99.90;;;;;;4975586;28;20206;-69
2023/06/24 09:33:12;;;;;;;3.25;3.05;;;23.90;99.90;;;;;;4974779;28;20547;-68
2023/06/24 09:35:39;;;;;;;6.20;3.75;;;23.90;99.90;;;;;;4974501;28;20197;-68
2023/06/24 09:38:07;;;;;;;3.53;3.22;;;23.70;99.90;;;;;;4974742;28;20294;-68
2023/06/24 09:40:36;;;;;;;3.88;3.47;;;23.50;99.90;;;;;;4974971;28;20203;-68
2023/06/24 09:43:03;;;;;;;3.88;3.50;;;23.20;99.90;;;;;;4975064;28;20655;-69
2023/06/24 09:45:31;;;;;;;3.67;3.47;;;23.20;99.90;;;;;;4975171;28;20209;-68
2023/06/24 09:47:58;;;;;;;4.45;2.90;;;23.20;99.90;;;;;;4974524;28;20637;-68
2023/06/24 09:50:25;;;;;;;3.50;3.30;;;23.40;99.90;;;;;;4974974;28;20274;-68
2023/06/24 09:52:53;;;;;;;3.75;3.05;;;23.30;99.90;;;;;;4974837;28;20202;-68
2023/06/24 09:55:21;;;;;;;3.03;2.83;;;23.10;99.90;;;;;;4974582;28;20666;-68
2023/06/24 09:57:51;;;;;;;2.97;2.88;;;23.00;99.90;;;;;;4974905;28;20210;-68
2023/06/24 10:00:21;;;;;;;3.13;2.88;;;23.00;99.90;;;;;;4974896;28;20226;-68
2023/06/24 10:02:49;;;;;;;3.05;2.78;;;23.00;99.90;;;;;;4974760;28;20206;-68
2023/06/24 10:05:16;;;;;;;2.85;2.63;;;23.00;99.90;;;;;;4974507;28;20202;-68
2023/06/24 10:07:44;;;;;;;2.90;2.80;;;22.90;99.90;;;;;;4974749;28;20226;-68
2023/06/24 10:10:11;;;;;;;3.28;3.08;;;22.80;99.90;;;;;;4974595;28;20226;-68
2023/06/24 10:12:39;;;;;;;2.85;2.65;;;22.90;99.90;;;;;;4974592;28;20206;-68
2023/06/24 10:15:07;;;;;;;2.75;2.65;;;23.10;99.90;;;;;;4974661;28;20209;-68
2023/06/24 10:17:34;;;;;;;2.88;2.78;;;23.20;99.90;;;;;;4974621;28;20685;-68
2023/06/24 10:20:05;;;;;;;2.65;2.33;;;23.50;99.90;;;;;;4974499;28;20227;-69
2023/06/24 10:22:32;;;;;;;2.70;2.63;;;23.60;99.90;;;;;;4974240;28;20218;-69
2023/06/24 10:25:01;;;;;;;3.72;3.45;;;23.50;99.90;;;;;;4974232;28;20199;-68
2023/06/24 10:27:32;;;;;;;2.60;2.50;;;23.30;99.90;;;;;;4974370;28;20719;-68
2023/06/24 10:30:04;;;;;;;3.35;3.15;;;23.20;99.90;;;;;;4974474;28;20226;-67
2023/06/24 10:32:41;;;;;;;3.22;2.90;;;23.10;99.90;;;;;;4974465;28;20187;-68
2023/06/24 10:35:21;;;;;;;2.72;2.63;;;23.10;99.90;;;;;;4974566;28;20230;-68
2023/06/24 10:37:55;;;;;;;2.80;2.70;;;23.20;99.90;;;;;;4974432;28;20191;-68
2023/06/24 10:40:35;;;;;;;2.90;2.70;;;23.00;99.10;;;;;;4974272;28;20582;-68
2023/06/24 10:43:02;;;;;;;2.63;2.42;;;22.90;99.90;;;;;;4973945;28;20635;-69
2023/06/24 10:45:30;;;;;;;2.80;2.70;;;22.70;97.90;;;;;;4974447;28;20214;-68
2023/06/24 10:48:00;;;;;;;3.00;2.80;;;22.70;95.90;;;;;;4977511;28;20218;-68
2023/06/24 10:50:26;;;;;;;3.03;2.90;;;22.70;99.90;;;;;;4978083;28;20253;-68
2023/06/24 10:52:55;;;;;;;2.70;2.60;;;22.90;99.90;;;;;;4978020;28;20226;-68
2023/06/24 10:55:23;;;;;;;2.80;2.70;;;23.00;99.90;;;;;;4978070;28;20187;-68
2023/06/24 10:57:50;;;;;;;3.00;2.80;;;23.20;96.30;;;;;;4978075;28;20203;-68
2023/06/24 11:00:17;;;;;;;4.15;2.80;;;23.00;93.80;;;;;;4978572;28;20237;-70
2023/06/24 11:02:45;;;;;;;3.03;2.88;;;23.00;99.90;;;;;;4978866;28;20203;-70
2023/06/24 11:05:12;;;;;;;2.83;2.63;;;23.00;99.90;;;;;;4978973;28;20227;-68
2023/06/24 11:07:40;;;;;;;2.88;2.72;;;23.00;99.90;;;;;;4978711;28;20234;-69
2023/06/24 11:10:09;;;;;;;3.13;2.92;;;23.00;99.90;;;;;;4978134;28;20237;-69
2023/06/24 11:12:38;;;;;;;3.38;3.17;;;23.00;99.50;;;;;;4977845;28;20206;-69
2023/06/24 11:15:06;;;;;;;3.25;3.05;;;23.00;99.90;;;;;;4978310;28;20203;-69
2023/06/24 11:17:34;;;;;;;2.88;2.75;;;23.10;99.90;;;;;;4978239;28;20199;-69
2023/06/24 11:20:07;;;;;;;2.95;2.75;;;23.10;99.90;;;;;;4977959;28;20219;-69
2023/06/24 11:22:34;;;;;;;2.83;2.72;;;23.20;97.50;;;;;;4977267;28;20215;-69
2023/06/24 11:25:00;;;;;;;2.72;2.58;;;23.20;92.80;;;;;;4977377;28;20211;-69
2023/06/24 11:27:28;;;;;;;2.85;2.70;;;23.20;92.30;;;;;;4977234;28;20234;-70
2023/06/24 11:29:58;;;;;;;3.10;2.70;;;23.20;97.80;;;;;;4977279;28;20223;-71
2023/06/24 11:32:25;;;;;;;2.88;2.78;;;23.30;95.10;;;;;;4976918;28;20207;-69
2023/06/24 11:34:52;;;;;;;2.60;2.50;;;23.40;89.80;;;;;;4977362;28;20202;-68
2023/06/24 11:37:20;;;;;;;2.67;2.58;;;23.50;85.50;;;;;;4977189;28;20257;-69
2023/06/24 11:40:02;;;;;;;2.63;2.53;;;23.50;78.60;;;;;;4976848;28;20250;-70
2023/06/24 11:42:30;;;;;;;2.85;2.65;;;23.60;79.10;;;;;;4977236;28;20192;-69
2023/06/24 11:45:00;;;;;;;2.45;2.35;;;23.60;78.40;;;;;;4977175;28;20273;-70
2023/06/24 11:47:27;;;;;;;3.03;2.92;;;23.60;83.40;;;;;;4977205;28;20597;-69
2023/06/24 11:49:57;;;;;;;2.55;2.45;;;23.70;87.50;;;;;;4978533;28;20222;-69
2023/06/24 11:52:33;;;;;;;2.65;2.45;;;23.80;88.70;;;;;;4978482;28;20203;-69
2023/06/24 11:55:00;;;;;;;2.88;2.78;;;23.70;83.40;;;;;;4978276;28;20221;-69
2023/06/24 11:57:49;;;;;;;2.75;2.55;;;23.60;83.40;;;;;;4978244;28;20207;-69
2023/06/24 12:00:16;;;;;;;2.53;2.38;;;23.30;85.30;;;;;;4977549;28;20270;-69
2023/06/24 12:02:43;;;;;;;2.97;2.78;;;23.10;90.60;;;;;;4977432;28;20213;-69
2023/06/24 12:05:10;;;;;;;2.78;2.67;;;23.10;94.10;;;;;;4976519;28;20678;-69
2023/06/24 12:07:38;;;;;;;2.97;2.78;;;23.10;91.20;;;;;;4976809;28;20223;-68
2023/06/24 12:10:06;;;;;;;2.92;2.75;;;23.00;94.40;;;;;;4976559;28;20223;-68
2023/06/24 12:12:32;;;;;;;2.97;2.83;;;23.00;93.40;;;;;;4976807;28;20191;-68
2023/06/24 12:14:59;;;;;;;3.10;2.70;;;23.00;92.30;;;;;;4976149;28;20299;-69
2023/06/24 12:17:26;;;;;;;2.95;2.85;;;23.00;98.40;;;;;;4978072;28;20602;-68
2023/06/24 12:19:52;;;;;;;2.92;2.72;;;22.90;96.70;;;;;;4976269;28;20230;-68
2023/06/24 12:22:20;;;;;;;2.55;2.45;;;22.90;95.40;;;;;;4980414;28;20227;-69
2023/06/24 12:24:49;;;;;;;3.00;2.80;;;23.00;90.30;;;;;;4981473;28;20562;-69
2023/06/24 12:27:16;;;;;;;2.72;2.63;;;23.00;91.70;;;;;;4977301;28;20289;-68
2023/06/24 12:29:42;;;;;;;2.67;2.58;;;23.00;83.10;;;;;;4979804;28;20305;-69
2023/06/24 12:32:09;;;;;;;2.55;2.40;;;22.90;80.80;;;;;;4977970;28;20203;-68
2023/06/24 12:34:37;;;;;;;2.53;2.42;;;22.80;84.60;;;;;;4979656;28;20261;-68
2023/06/24 12:37:05;;;;;;;3.13;2.92;;;22.80;90.90;;;;;;4979470;28;20213;-67
2023/06/24 12:39:32;;;;;;;2.72;2.53;;;22.80;85.60;;;;;;4978484;28;20219;-69
2023/06/24 12:42:01;;;;;;;2.75;2.50;;;22.80;88.70;;;;;;4978757;28;20246;-69
2023/06/24 12:44:29;;;;;;;3.22;3.03;;;22.70;88.10;;;;;;4981107;28;20214;-69
2023/06/24 12:46:56;;;;;;;2.60;2.50;;;22.70;89.70;;;;;;4982219;28;20211;-67
2023/06/24 12:49:23;;;;;;;3.20;3.00;;;22.70;91.00;;;;;;4983034;28;20235;-68
2023/06/24 12:51:50;;;;;;;3.08;2.97;;;22.70;90.00;;;;;;4980374;28;20670;-68
2023/06/24 12:54:17;;;;;;;2.75;2.65;;;22.70;83.40;;;;;;4979704;28;20290;-69
2023/06/24 12:56:46;;;;;;;2.53;2.42;;;22.80;81.70;;;;;;4979802;28;20203;-69
2023/06/24 12:59:14;;;;;;;2.45;2.35;;;22.90;87.90;;;;;;4979403;28;20215;-68
2023/06/24 13:01:44;;;;;;;3.08;2.92;;;22.90;90.70;;;;;;4980008;28;20183;-69
2023/06/24 13:04:12;;;;;;;2.90;2.80;;;22.90;87.70;;;;;;4979940;28;20203;-69
2023/06/24 13:06:39;;;;;;;2.35;2.25;;;23.00;86.80;;;;;;4979926;28;20353;-69
2023/06/24 13:09:06;;;;;;;2.38;2.22;;;23.00;90.30;;;;;;4979738;28;20227;-69
2023/06/24 13:11:33;;;;;;;2.80;2.60;;;23.00;91.10;;;;;;4978968;28;20285;-69
2023/06/24 13:14:00;;;;;;;3.05;2.95;;;23.00;91.60;;;;;;4979266;28;20206;-69
2023/06/24 13:16:29;;;;;;;2.20;2.10;;;23.00;95.40;;;;;;4979615;28;20235;-69
2023/06/24 13:18:56;;;;;;;3.05;2.85;;;23.10;95.50;;;;;;4979364;28;20214;-69
2023/06/24 13:21:23;;;;;;;2.92;2.72;;;23.10;94.60;;;;;;4976957;28;20211;-69
2023/06/24 13:23:50;;;;;;;2.80;2.70;;;23.10;96.90;;;;;;4976967;28;20210;-69
2023/06/24 13:26:16;;;;;;;2.85;2.75;;;23.10;90.40;;;;;;4978005;28;20548;-70
2023/06/24 13:28:43;;;;;;;3.25;3.15;;;23.10;88.50;;;;;;4978142;28;20222;-70
2023/06/24 13:31:10;;;;;;;3.40;3.20;;;23.10;86.20;;;;;;4975234;28;20213;-70
2023/06/24 13:33:38;;;;;;;3.22;3.03;;;23.20;90.40;;;;;;4998194;23;20229;-70
2023/06/24 13:36:07;;;;;;;2.88;2.70;;;23.20;89.80;;;;;;4975318;28;20214;-69
2023/06/24 13:38:34;;;;;;;2.67;2.58;;;23.20;88.40;;;;;;4975151;28;20266;-71
2023/06/24 13:41:01;;;;;;;2.78;2.67;;;23.20;85.40;;;;;;4975086;28;20206;-70
2023/06/24 13:43:27;;;;;;;3.00;2.83;;;23.30;87.60;;;;;;4974911;28;20226;-71
2023/06/24 13:45:54;;;;;;;2.75;2.60;;;23.30;85.30;;;;;;4974586;28;20669;-71
2023/06/24 13:48:21;;;;;;;2.50;2.40;;;23.40;92.00;;;;;;4974522;28;20694;-71
2023/06/24 13:50:49;;;;;;;3.45;3.25;;;23.40;87.80;;;;;;4974899;28;20230;-70
2023/06/24 13:53:15;;;;;;;2.83;2.72;;;23.50;91.00;;;;;;4974815;28;20309;-70
2023/06/24 13:55:42;;;;;;;3.28;3.08;;;23.40;90.50;;;;;;4975231;28;20540;-71
2023/06/24 13:58:09;;;;;;;2.60;2.50;;;23.40;88.70;;;;;;4974863;28;20195;-70
2023/06/24 14:00:35;;;;;;;2.72;2.63;;;23.50;89.40;;;;;;4974888;28;20742;-71
2023/06/24 14:03:02;;;;;;;3.13;2.92;;;23.50;79.50;;;;;;4974416;28;20709;-70
2023/06/24 14:05:29;;;;;;;2.72;2.63;;;23.50;77.50;;;;;;4974741;28;20262;-71
2023/06/24 14:07:57;;;;;;;2.50;2.40;;;23.50;75.10;;;;;;4974686;28;20249;-71
2023/06/24 14:10:24;;;;;;;2.70;2.60;;;23.40;76.30;;;;;;4974769;28;20242;-70
2023/06/24 14:12:50;;;;;;;2.90;2.70;;;23.40;83.20;;;;;;4975401;28;20281;-71
2023/06/24 14:15:17;;;;;;;2.70;2.60;;;23.40;78.30;;;;;;4974574;28;20209;-71
2023/06/24 14:17:44;;;;;;;3.00;2.80;;;23.40;80.20;;;;;;4974589;28;20214;-71
2023/06/24 14:20:11;;;;;;;3.30;2.95;;;23.50;78.60;;;;;;4974555;28;20206;-70
2023/06/24 14:22:38;;;;;;;2.90;2.80;;;23.50;77.50;;;;;;4977547;28;20262;-70
2023/06/24 14:25:07;;;;;;;2.85;2.65;;;23.50;77.40;;;;;;4978530;28;20203;-71
2023/06/24 14:27:34;;;;;;;3.55;3.22;;;23.50;75.20;;;;;;4978198;28;20206;-70
2023/06/24 14:30:00;;;;;;;3.40;3.10;;;23.50;78.50;;;;;;4979616;28;20709;-71
2023/06/24 14:32:27;;;;;;;2.95;2.85;;;23.50;79.40;;;;;;4980365;28;20206;-71
2023/06/24 14:34:54;;;;;;;2.88;2.72;;;23.50;77.50;;;;;;4977928;28;20281;-70
2023/06/24 14:37:20;;;;;;;3.70;2.55;;;23.50;75.80;;;;;;4978307;28;20206;-71
2023/06/24 14:39:47;;;;;;;3.00;2.90;;;23.50;73.50;;;;;;4977978;28;20226;-71
2023/06/24 14:42:15;;;;;;;3.15;3.05;;;23.50;73.00;;;;;;4978225;28;20229;-70
2023/06/24 14:44:42;;;;;;;2.90;2.80;;;23.50;74.80;;;;;;4978158;28;20223;-70
2023/06/24 14:47:08;;;;;;;3.40;3.20;;;23.50;74.80;;;;;;4977833;28;20722;-70
2023/06/24 14:49:35;;;;;;;2.92;2.83;;;23.40;77.40;;;;;;4978045;28;20635;-70
2023/06/24 14:52:02;;;;;;;3.30;3.10;;;23.50;82.20;;;;;;4977793;28;20729;-70
2023/06/24 14:54:28;;;;;;;3.00;2.90;;;23.50;82.40;;;;;;4977909;28;20226;-70
2023/06/24 14:56:55;;;;;;;2.88;2.78;;;23.60;78.20;;;;;;4977982;28;20207;-70
2023/06/24 14:59:23;;;;;;;3.35;3.15;;;23.70;76.30;;;;;;4977816;28;20199;-70
2023/06/24 15:01:50;;;;;;;3.22;3.03;;;23.60;75.60;;;;;;4977499;28;20561;-71
2023/06/24 15:04:16;;;;;;;3.20;3.00;;;23.60;75.70;;;;;;4977657;28;20223;-71
2023/06/24 15:06:43;;;;;;;3.95;3.00;;;23.70;83.40;;;;;;4977675;28;20199;-71
2023/06/24 15:09:10;;;;;;;2.95;2.85;;;23.70;84.80;;;;;;4977930;28;20218;-71
2023/06/24 15:11:37;;;;;;;3.45;3.25;;;23.70;81.90;;;;;;4977907;28;20203;-71
2023/06/24 15:14:03;;;;;;;3.80;3.60;;;23.80;77.80;;;;;;4977754;28;20282;-71
2023/06/24 15:16:31;;;;;;;3.15;3.05;;;23.70;77.60;;;;;;4977815;28;20206;-71
2023/06/24 15:18:58;;;;;;;3.13;2.92;;;23.70;75.70;;;;;;4977416;28;20667;-70
2023/06/24 15:21:25;;;;;;;2.65;2.55;;;23.60;75.60;;;;;;4977824;28;20207;-71
2023/06/24 15:23:51;;;;;;;2.97;2.78;;;23.50;78.00;;;;;;4977573;28;20239;-71
2023/06/24 15:26:18;;;;;;;3.40;3.03;;;23.50;80.00;;;;;;4977653;28;20234;-71
2023/06/24 15:28:44;;;;;;;2.70;2.60;;;23.60;80.00;;;;;;4977483;28;20702;-71
2023/06/24 15:31:12;;;;;;;2.88;2.78;;;23.60;75.90;;;;;;4977631;28;20580;-71
2023/06/24 15:33:39;;;;;;;2.85;2.50;;;23.50;70.30;;;;;;4976283;28;20318;-72
2023/06/24 15:36:07;;;;;;;2.63;2.53;;;23.50;71.50;;;;;;4977186;28;20666;-71
2023/06/24 15:38:34;;;;;;;2.83;2.60;;;23.40;71.50;;;;;;4977357;28;20634;-71
2023/06/24 15:41:01;;;;;;;3.22;3.03;;;23.40;75.40;;;;;;4977599;28;20199;-71
2023/06/24 15:43:28;;;;;;;2.80;2.60;;;23.40;73.60;;;;;;4978586;28;20686;-70
2023/06/24 15:45:55;;;;;;;2.58;2.47;;;23.40;70.50;;;;;;4980156;28;20213;-71
2023/06/24 15:48:21;;;;;;;3.10;2.78;;;23.40;73.10;;;;;;4977383;28;20215;-67
2023/06/24 15:50:49;;;;;;;3.28;3.08;;;23.40;75.10;;;;;;4976910;28;20630;-68
2023/06/24 15:53:16;;;;;;;3.70;3.40;;;23.50;75.00;;;;;;4977300;28;20219;-68
2023/06/24 15:55:43;;;;;;;3.55;3.35;;;23.50;69.70;;;;;;4977077;28;20183;-67
2023/06/24 15:58:10;;;;;;;3.00;2.90;;;23.40;70.90;;;;;;4976980;28;20273;-68
2023/06/24 16:00:36;;;;;;;3.25;3.05;;;23.50;71.90;;;;;;4976920;28;20206;-68
2023/06/24 16:03:03;;;;;;;3.10;3.00;;;23.40;69.70;;;;;;4976965;28;20223;-67
2023/06/24 16:05:30;;;;;;;3.75;3.03;;;23.40;67.80;;;;;;4976629;28;20199;-67
2023/06/24 16:07:58;;;;;;;2.80;2.70;;;23.30;69.20;;;;;;4976574;28;20635;-67
2023/06/24 16:10:25;;;;;;;3.08;2.92;;;23.30;71.30;;;;;;4976755;28;20207;-67
2023/06/24 16:12:51;;;;;;;3.22;3.03;;;23.30;69.10;;;;;;4976882;28;20250;-68
2023/06/24 16:15:18;;;;;;;3.15;2.90;;;23.20;70.00;;;;;;4976431;28;20234;-68
2023/06/24 16:17:45;;;;;;;2.60;2.50;;;23.20;70.50;;;;;;4976924;28;20195;-68
2023/06/24 16:20:14;;;;;;;2.78;2.67;;;23.10;72.70;;;;;;4976703;28;20198;-68
2023/06/24 16:22:40;;;;;;;2.92;2.80;;;23.20;73.50;;;;;;4976679;28;20274;-68
2023/06/24 16:25:09;;;;;;;3.28;3.08;;;23.20;69.50;;;;;;4976509;28;20729;-68
2023/06/24 16:27:36;;;;;;;3.08;2.88;;;23.20;70.50;;;;;;4976784;28;20207;-68
2023/06/24 16:30:03;;;;;;;3.03;2.92;;;23.20;70.00;;;;;;4976561;28;20264;-67
2023/06/24 16:32:30;;;;;;;3.03;2.80;;;23.20;71.30;;;;;;4976668;28;20230;-67
2023/06/24 16:34:56;;;;;;;3.10;2.90;;;23.10;71.90;;;;;;4976315;28;20234;-68
2023/06/24 16:37:23;;;;;;;2.97;2.88;;;23.10;71.10;;;;;;4984242;28;20225;-67
2023/06/24 16:39:50;;;;;;;3.03;2.85;;;23.10;71.30;;;;;;4993432;28;20199;-67
2023/06/24 16:42:18;;;;;;;3.38;3.17;;;23.00;73.20;;;;;;4991332;28;20191;-67
2023/06/24 16:44:46;;;;;;;2.88;2.78;;;23.00;75.70;;;;;;4980895;28;20230;-67
2023/06/24 16:47:13;;;;;;;3.03;2.83;;;23.10;77.00;;;;;;4975873;28;20554;-67
2023/06/24 16:49:40;;;;;;;2.70;2.60;;;23.00;72.80;;;;;;4976479;28;20522;-68
2023/06/24 16:52:08;;;;;;;3.05;2.95;;;23.00;71.60;;;;;;4975987;28;20209;-67
2023/06/24 16:54:34;;;;;;;2.78;2.65;;;23.00;71.60;;;;;;4975628;28;20226;-67
2023/06/24 16:57:01;;;;;;;3.33;2.92;;;23.00;73.60;;;;;;4975726;28;20190;-67
2023/06/24 16:59:29;;;;;;;3.00;2.90;;;23.00;75.00;;;;;;4975646;28;20214;-66
2023/06/24 17:01:56;;;;;;;3.10;2.95;;;23.00;73.80;;;;;;4975576;28;20294;-66
2023/06/24 17:04:23;;;;;;;2.65;2.45;;;23.00;73.20;;;;;;4975498;28;20281;-66
2023/06/24 17:06:49;;;;;;;2.38;2.28;;;23.00;74.60;;;;;;4976025;28;20331;-66
2023/06/24 17:09:16;;;;;;;3.10;2.90;;;22.90;72.90;;;;;;4979023;28;20223;-66
2023/06/24 17:11:44;;;;;;;3.20;3.03;;;22.90;74.80;;;;;;4978173;28;20207;-66
2023/06/24 17:14:11;;;;;;;2.83;2.72;;;22.90;73.90;;;;;;4980027;28;20222;-66
2023/06/24 17:16:40;;;;;;;3.10;2.90;;;22.90;73.70;;;;;;4980018;28;20530;-66
2023/06/24 17:19:07;;;;;;;2.83;2.72;;;22.80;73.20;;;;;;4979613;28;20206;-66
2023/06/24 17:21:36;;;;;;;2.80;2.70;;;22.80;70.80;;;;;;4980157;28;20195;-66
2023/06/24 17:24:05;;;;;;;2.80;2.70;;;22.70;71.70;;;;;;4979349;28;20226;-66
2023/06/24 17:26:33;;;;;;;2.90;2.70;;;22.70;70.70;;;;;;4979594;28;20199;-66
2023/06/24 17:29:00;;;;;;;2.67;2.58;;;22.60;73.00;;;;;;4981458;28;20215;-66
2023/06/24 17:31:27;;;;;;;3.00;2.80;;;22.60;72.50;;;;;;4979610;28;20253;-66
2023/06/24 17:33:55;;;;;;;2.65;2.55;;;22.60;74.80;;;;;;4978976;28;20234;-66
2023/06/24 17:36:22;;;;;;;3.22;3.03;;;22.60;75.10;;;;;;4975167;28;20206;-67
2023/06/24 17:38:48;;;;;;;3.88;3.30;;;22.60;75.60;;;;;;4975211;28;20203;-66
2023/06/24 17:41:15;;;;;;;3.10;2.90;;;22.50;72.80;;;;;;4975757;28;20199;-66
2023/06/24 17:43:42;;;;;;;3.05;2.90;;;22.50;72.90;;;;;;4976544;28;20227;-65
2023/06/24 17:46:08;;;;;;;3.38;3.17;;;22.50;74.10;;;;;;4977221;28;20214;-66
2023/06/24 17:48:35;;;;;;;2.83;2.72;;;22.40;73.20;;;;;;4978000;28;20610;-66
2023/06/24 17:51:05;;;;;;;2.97;2.78;;;22.40;75.70;;;;;;4977007;28;20628;-67
2023/06/24 17:53:32;;;;;;;2.92;2.72;;;22.30;77.30;;;;;;4977195;28;20227;-66
2023/06/24 17:55:59;;;;;;;2.97;2.88;;;22.30;79.50;;;;;;4976069;28;20612;-66
2023/06/24 17:58:26;;;;;;;3.00;2.80;;;22.30;78.90;;;;;;4976058;28;20262;-67
2023/06/24 18:00:52;;;;;;;2.58;2.47;;;22.30;81.40;;;;;;4976308;28;20562;-66
2023/06/24 18:03:19;;;;;;;4.68;2.75;;;22.30;81.70;;;;;;4974672;28;20226;-67
2023/06/24 18:05:46;;;;;;;2.63;2.53;;;22.20;82.10;;;;;;4974821;28;20230;-68
2023/06/24 18:08:14;;;;;;;2.83;2.72;;;22.20;81.90;;;;;;4974892;28;20548;-66